Tiempo atmosférico en la estación meteorológica de Madridejos, Toledo (690 m.)



Fecha
DESCASC
Temp. máxima en grados centígrados (hora)
DESCASC
Temp. mínima en grados centígrados (hora)
DESCASC
Temp. media en grados centígrados
DESCASC
Racha de viento máxima en m/sg (hora)
DESCASC
Velocidad máxima media en intervalos de 10 minutos(hora)
DESCASC
Precipitaciones diarias en mm
DESCASC
Precipitaciones de 00:00 a 06:00 en mm
DESCASC
Precipitaciones de 06:00 a 12:00 en mm
DESCASC
Precipitaciones de 12:00 a 18:00 en mm
DESCASC
Precipitaciones de 18:00 a 24:00 en mm
DESCASC
23-06-2019 33.9 (18:00) 14.5 (06:40) 24.2 -- (--) -- (--) 0 0 0 0 0
22-06-2019 32.6 (18:20) 13.5 (07:20) 23 8.61 (17:10) 4.44 (20:00) 0 0 0 0 0
21-06-2019 30.2 (18:00) 15.6 (07:20) 22.9 9.17 (18:10) 5 (09:20) 0 0 0 0 0
20-06-2019 29.8 (18:20) 13.5 (00:00) 21.6 -- (--) -- (--) 0 0 0 0 0
19-06-2019 28.7 (17:10) 15.1 (00:00) 21.9 -- (--) -- (--) 0 0 0 0 0
18-06-2019 -- (--) -- (--) -- -- (--) -- (--) -- 0 -- 0 0
17-06-2019 -- (--) -- (--) -- -- (--) -- (--) -- 0 -- -- 0
16-06-2019 29.9 (19:00) 9.8 (00:00) 19.8 11.11 (19:50) 4.44 (09:40) 0 0 0 0 0
15-06-2019 26.1 (18:40) 8.7 (00:00) 17.4 10.56 (14:10) 4.17 (14:10) 0 0 0 0 0
14-06-2019 25.2 (16:20) 13.8 (00:00) 19.5 16.11 (15:00) 7.5 (16:20) 0 0 0 0 0
13-06-2019 28.8 (18:40) 9.9 (00:00) 19.3 12.78 (19:30) 5.56 (23:10) 0 0 0 0 0
12-06-2019 26.5 (18:50) 7.8 (00:00) 17.2 10.83 (10:20) 5.28 (10:20) 0 0 0 0 0
11-06-2019 21.1 (17:20) 11.5 (00:00) 16.3 15 (16:30) 6.94 (15:40) 0 0 0 0 0
10-06-2019 27.2 (18:50) 10.9 (00:00) 19.1 11.67 (20:20) 6.39 (20:20) 0 0 0 0 0
09-06-2019 27.4 (16:30) 11 (00:00) 19.2 13.61 (20:20) 6.94 (19:40) 0 0 0 0 0
08-06-2019 30.3 (18:30) 6.9 (00:00) 18.6 14.17 (22:20) 8.06 (22:30) 0 0 0 0 0
07-06-2019 22.4 (19:00) 12.1 (00:00) 17.3 11.39 (06:50) 7.22 (01:10) 0 0 0 0 0
06-06-2019 25.7 (17:40) 9 (00:00) 17.4 15.28 (16:10) 8.61 (17:50) 0 0 0 0 0
05-06-2019 21.9 (19:00) 11 (00:00) 16.4 15.28 (14:10) 8.06 (05:30) 0 0 0 0 0
04-06-2019 29.6 (15:20) 17.4 (00:00) 23.5 15.83 (16:20) 7.78 (15:00) 0 0 0 0 0
03-06-2019 33.8 (17:40) 15.6 (00:00) 24.7 11.94 (16:00) 5.83 (17:20) 0 0 0 0 0
02-06-2019 33.9 (18:30) 12.9 (00:00) 23.4 9.44 (17:40) 4.17 (03:40) 0 0 0 0 0
01-06-2019 31.5 (16:50) 12.4 (00:00) 21.9 9.72 (15:50) 4.17 (02:30) 0 0 0 0 0
31-05-2019 29.6 (18:30) 11.8 (00:00) 20.7 10.28 (15:50) 5.28 (17:30) 0 0 0 0 0
30-05-2019 28.1 (19:30) 10.1 (00:00) 19.1 11.39 (10:30) 5.83 (11:00) 0 0 0 0 0
29-05-2019 25.6 (17:20) 8.2 (00:00) 16.9 13.89 (16:50) 6.94 (00:20) 0 0 0 0 0
28-05-2019 26.9 (17:40) 10.5 (00:00) 18.7 13.06 (23:30) 6.39 (21:40) 0 0 0 0 0
27-05-2019 29.8 (18:20) 9.8 (00:00) 19.8 13.89 (18:50) 6.94 (17:50) 0 0 0 0 0
26-05-2019 25.8 (19:00) 9 (00:00) 17.4 13.33 (16:10) 5.83 (15:00) 0 0 0 0 0

Gráficas

Temp. máximas Temp. mínimas Temp. medias Precipitaciones Rachas de viento máximas Velocidades máximas media en intervalos de 10 minutos

Datos horarios

Fecha y hora oficial Temperatura (ºC) Velocidad del viento (km/h) Dirección del viento Racha (km/h) Dirección de racha Precipitación (mm) Presión (hPa) Tendencia (hPa) Humedad (%)
2019-06-24 23:00:00 25.7 7 Oeste 17 Oeste 0 934.6 1.5 29
2019-06-24 22:00:00 28.4 9 Sudoeste 23 Sudoeste 0 933.9 0.8 20
2019-06-24 21:00:00 30.2 17 Sudoeste 33 Sudoeste 0 933.4 0.2 21
2019-06-24 20:00:00 32 -- -- -- -- 0 933.1 -0.3 20
2019-06-24 19:00:00 32.3 14 Sur 32 Sudoeste 0 933.1 -0.5 20
2019-06-24 18:00:00 33 16 Sudoeste 35 Sudoeste 0 933.2 -0.9 18
2019-06-24 17:00:00 32.9 -- -- -- -- 0 933.4 -1.3 17
2019-06-24 16:00:00 31.9 4 Sudeste 23 Sudeste 0 933.6 -1.4 20
2019-06-24 15:00:00 29.1 7 Sudeste 23 Este 0 934.1 -1 23
2019-06-24 14:00:00 28.5 3 Sur 15 Sudeste 0 934.7 -0.6 24
2019-06-24 13:00:00 27.4 4 Sudeste 15 Este 0 935 -0.1 27
2019-06-24 12:00:00 25.4 5 Este 23 Nordeste 0 935.1 0.2 31
2019-06-24 11:00:00 23.6 5 Este 24 Este 0 935.3 0.9 32
2019-06-24 10:00:00 21.3 12 Sudeste 23 Este 0 935.1 0.9 36
2019-06-24 09:00:00 19.2 8 Este 18 Este 0 934.9 1 38
2019-06-24 08:00:00 17.9 4 Nordeste 22 Oeste 0 934.4 0.8 40
2019-06-24 07:00:00 17.4 5 Nordeste 18 Nordeste 0 934.2 0.7 39
2019-06-24 06:00:00 17.6 7 Oeste 19 Oeste 0 933.9 0.3 39
2019-06-24 05:00:00 18.3 5 Sudoeste 19 Oeste 0 933.6 -0.1 38
2019-06-24 04:00:00 19.3 4 Oeste 20 Oeste 0 933.5 -0.4 37
2019-06-24 03:00:00 21.8 4 Nordeste 14 Este 0 933.6 -0.1 32
2019-06-24 02:00:00 22.6 8 Nordeste -- -- 0 933.7 0.6 31
2019-06-24 01:00:00 25 14 Este 34 Este 0 933.9 1.9 27
2019-06-24 00:00:00 27.5 10 Nordeste 21 Norte 0 933.7 1.9 20
2019-06-23 23:00:00 27 8 Nordeste 19 Norte 0 933.1 1.4 22
2019-06-23 22:00:00 30.6 5 Sudoeste 15 Sudoeste 0 932 0.1 18
2019-06-23 21:00:00 32.9 6 Sudoeste 24 Sudoeste 0 931.8 -0.7 16
2019-06-23 20:00:00 33.2 9 Sur 30 Sudeste 0 931.7 -1.3 16
2019-06-23 19:00:00 33.4 12 Sur 27 Este 0 931.9 -1.5 17
2019-06-23 18:00:00 33.9 10 Sudeste 32 Sudoeste 0 932.5 -1.6 16
2019-06-23 17:00:00 33.6 8 Sudeste 31 Sur 0 933 -1.3 16
2019-06-23 16:00:00 32.7 10 Sur 30 Sudeste 0 933.4 -1.5 17
2019-06-23 15:00:00 32 14 Sudeste -- -- 0 934.1 -1.1 17
2019-06-23 14:00:00 31.2 16 Sudeste -- -- 0 934.3 -1.1 17
2019-06-23 13:00:00 29.5 6 Este 22 Este 0 934.9 -0.4 17
2019-06-23 12:00:00 27.9 5 Este 26 Este 0 935.2 0.1 19
2019-06-23 11:00:00 26 10 Sudeste 28 Sudeste 0 935.4 0.7 21
2019-06-23 10:00:00 23.5 14 Sudeste 27 Este 0 935.3 0.9 26
2019-06-23 09:00:00 20.2 5 Este 16 Este 0 935.1 1.2 33
2019-06-23 08:00:00 16.4 3 Sudeste 13 Sur 0 934.7 1 47
2019-06-23 07:00:00 14.8 5 Nordeste 19 Norte 0 934.4 0.6 55
2019-06-23 06:00:00 15.3 7 Este 21 Este 0 933.9 -0.1 57
2019-06-23 05:00:00 16.7 5 Nordeste 18 Este 0 933.7 -0.4 37
2019-06-23 04:00:00 17.5 7 Este 18 Este 0 933.8 -0.4 39
2019-06-23 03:00:00 19.3 4 Este 22 Nordeste 0 934 0 38
2019-06-23 02:00:00 19.5 5 Sudoeste 19 Nordeste 0 934.1 0.4 28
2019-06-23 01:00:00 21.1 6 Sudoeste 12 Norte 0 934.2 1 25
2019-06-23 00:00:00 22.9 8 Noroeste 18 Norte 0 934 1 22
2019-06-22 23:00:00 24.7 5 Oeste 14 Oeste 0 933.7 0.6 21
2019-06-22 22:00:00 29.1 6 Sur 16 Sur 0 933.2 0 15
2019-06-22 21:00:00 31 9 Sudoeste 21 Sudoeste 0 933 -0.6 13
2019-06-22 20:00:00 31.7 16 Sur -- -- -- 933.1 -1.1 13
2019-06-22 19:00:00 31.8 12 Sudoeste 28 Sudoeste 0 933.2 -1.5 14
2019-06-22 18:00:00 32 13 Sudoeste 31 Sudoeste 0 933.6 -1.5 13
2019-06-22 17:00:00 31.4 12 Sur 28 Sudoeste 0 934.2 -1.6 11
2019-06-22 16:00:00 30.2 6 Sudoeste 31 Sudoeste 0 934.7 -1.7 13
2019-06-22 15:00:00 30.1 9 Oeste 28 Oeste 0 935.1 -1.6 14
2019-06-22 14:00:00 29.3 8 Sur 22 Sudeste 0 935.8 -1 19
2019-06-22 13:00:00 27.6 3 Oeste 14 Sudeste 0 936.4 -0.6 27
2019-06-22 12:00:00 25 7 Sudeste 25 Sudeste 0 936.7 0 34
2019-06-22 11:00:00 22.1 10 Sudeste 26 Sudeste 0 936.8 0.3 44
2019-06-22 10:00:00 19.7 12 Sudeste 24 Este 0 937 1 56
2019-06-22 09:00:00 17.1 5 Este 15 Norte 0 936.7 0.8 65
2019-06-22 08:00:00 14.1 3 Noroeste 17 Norte 0 936.5 0.4 64
2019-06-22 07:00:00 15.6 8 Sur 18 Este 0 936 -0.2 69
2019-06-22 06:00:00 16.1 8 Sudeste 21 Este 0 935.9 -0.5 66
2019-06-22 05:00:00 16.6 10 Sudeste 23 Este 0 936.1 0.1 64
2019-06-22 04:00:00 17.2 12 Este 23 Este 0 936.2 0.2 54
2019-06-22 03:00:00 17.7 13 Este 24 Este 0 936.4 0.5 38
2019-06-22 02:00:00 18.1 5 Oeste 22 Oeste 0 936 0.5 31
2019-06-22 01:00:00 18.6 10 Oeste 24 Oeste 0 936 1.1 29
2019-06-22 00:00:00 20.6 7 Noroeste 20 Noroeste 0 935.9 1.5 25
2019-06-21 23:00:00 23 6 Norte 15 Noroeste 0 935.5 1.5 24
2019-06-21 22:00:00 25.8 6 Norte 24 Noroeste 0 934.9 1 21
2019-06-21 21:00:00 27.7 11 Norte 27 Norte 0 934.4 0.5 20
2019-06-21 20:00:00 28.1 9 Norte 31 Norte 0 934 -0.2 19
2019-06-21 19:00:00 29.5 6 Noroeste -- -- 0 933.9 -0.8 18
2019-06-21 18:00:00 30 15 Oeste -- -- 0 933.9 -1 15
2019-06-21 17:00:00 28.9 6 Este 31 Oeste 0 934.2 -1.1 16
2019-06-21 16:00:00 29 11 Sudoeste 31 Oeste 0 934.7 -0.8 15
2019-06-21 15:00:00 28.2 13 Sudoeste 31 Oeste 0 934.9 -1 18
2019-06-21 14:00:00 26.8 6 Sur 28 Sudoeste 0 935.3 -0.6 23
2019-06-21 13:00:00 26.6 5 Sudeste 29 Sur 0 935.5 -0.3 27
2019-06-21 12:00:00 24.5 5 Sudoeste 28 Oeste 0 935.9 0.3 32
2019-06-21 11:00:00 22.4 9 Noroeste 30 Oeste 0 935.9 0.8 42
2019-06-21 10:00:00 20.8 16 Noroeste 31 Noroeste 0 935.8 1 48
2019-06-21 09:00:00 19.1 15 Oeste 24 Oeste 0 935.6 1.1 52
2019-06-21 08:00:00 16 12 Oeste 21 Oeste 0 935.1 0.7 56
2019-06-21 07:00:00 16.7 7 Sudoeste 19 Sudoeste 0 934.8 0.5 55
2019-06-21 06:00:00 17.9 10 Oeste 28 Oeste 0 934.5 0.2 51
2019-06-21 05:00:00 18.5 17 Oeste 31 Noroeste 0 934.4 0 48
2019-06-21 04:00:00 18.1 16 Oeste 25 Oeste 0 934.3 0 46
2019-06-21 03:00:00 19.8 12 Oeste 24 Oeste 0 934.3 0.4 43
2019-06-21 02:00:00 20.4 11 Oeste 29 Oeste 0 934.4 1.1 42
2019-06-21 01:00:00 20.9 6 Oeste 32 Oeste 0 934.3 1.8 39
2019-06-21 00:00:00 21.8 11 Noroeste 35 Oeste 0 933.9 1.6 36
2019-06-20 23:00:00 23.2 19 Oeste 36 Oeste 0 933.3 1.1 32
2019-06-20 22:00:00 25.1 22 Oeste 39 Oeste 0 932.5 0.4 29
2019-06-20 21:00:00 27.1 17 Oeste -- -- 0 932.3 -0.2 24
2019-06-20 20:00:00 28 -- -- -- -- 0 932.2 -0.5 23
2019-06-20 19:00:00 28.8 14 Oeste 34 Oeste 0 932.1 -1.2 22
2019-06-20 18:00:00 29.2 12 Sudoeste -- -- 0 932.5 -1.2 22
2019-06-20 17:00:00 29.2 -- -- -- -- 0 932.7 -1.8 22
2019-06-20 16:00:00 27.6 9 Oeste 31 Sudoeste 0 933.3 -1.4 24
2019-06-20 15:00:00 27.4 8 Noroeste 22 Oeste 0 933.7 -1.2 27
2019-06-20 14:00:00 25.7 7 Oeste 26 Oeste 0 934.5 -0.5 32
2019-06-20 13:00:00 26.1 12 Sur 30 Sur 0 934.7 -0.5 31
2019-06-20 12:00:00 24.7 6 Sudoeste 24 Sudoeste 0 934.9 -0.4 35
2019-06-20 11:00:00 23.5 4 Sur 22 Oeste 0 935 -0.1 41
2019-06-20 10:00:00 21.3 8 Noroeste 26 Oeste 0 935.2 0.2 47
2019-06-20 09:00:00 18.9 13 Oeste 18 Oeste 0 935.3 0.4 51
2019-06-20 08:00:00 15.4 6 Sudoeste 12 Este 0 935.1 0.1 60
2019-06-20 07:00:00 13.6 3 Sudoeste 12 Este 0 935 -0.2 61
2019-06-20 06:00:00 14.8 6 Sudoeste 10 Sudoeste 0 934.9 -0.6 60
2019-06-20 05:00:00 15.4 6 Sudoeste 19 Oeste 0 935 -0.7 56
2019-06-20 04:00:00 15.7 3 Noroeste 17 Norte 0 935.2 -0.4 55
2019-06-20 03:00:00 16.4 8 Este 20 Sudoeste 0 935.5 0 50
2019-06-20 02:00:00 18.2 5 Sudoeste 21 Oeste 0 935.7 0.6 48
2019-06-20 01:00:00 19.1 5 Noroeste 9 Noroeste 0 935.6 0.9 46
2019-06-20 00:00:00 20.2 6 Noroeste -- -- 0 935.5 0.8 43
2019-06-19 23:00:00 21.6 -- -- -- -- 0 935.1 0.7 36
2019-06-19 22:00:00 23.4 25 Oeste 45 Oeste 0 934.7 0.3 32
2019-06-19 21:00:00 25.3 23 Oeste -- -- 0 934.7 0.2 29
2019-06-19 20:00:00 27 -- -- -- -- 0 934.4 -0.3 27
2019-06-19 19:00:00 27.9 -- -- -- -- 0 934.4 -0.9 24
2019-06-19 18:00:00 28.1 -- -- -- -- 0 934.5 -1.4 25
2019-06-19 17:00:00 28.3 15 Sudoeste -- -- 0 934.7 -1.7 25
2019-06-19 16:00:00 27.6 18 Oeste 37 Noroeste 0 935.3 -1.2 27
2019-06-19 15:00:00 26.8 13 Sudoeste -- -- 0 935.9 -0.6 29
2019-06-19 14:00:00 25.9 17 Sudoeste 36 Oeste 0 936.4 -0.4 31
2019-06-19 13:00:00 24.4 15 Sudoeste 32 Sudoeste 0 936.5 -0.4 36
2019-06-19 12:00:00 22.8 14 Sudoeste 29 Sudoeste 0 936.5 -0.2 41
2019-06-19 11:00:00 21.5 13 Sudoeste 27 Sudoeste 0 936.8 0.3 49
2019-06-19 10:00:00 20.1 8 Sudoeste 24 Oeste 0 936.9 1 55
2019-06-19 09:00:00 18.6 13 Oeste 22 Oeste 0 936.7 1 62
2019-06-19 08:00:00 16.2 13 Oeste 25 Noroeste 0 936.5 0.8 68
2019-06-19 07:00:00 15.4 7 Sudoeste 21 Oeste 0 935.9 0.3 67
2019-06-19 06:00:00 16 6 Noroeste -- -- 0 935.7 0 62
2019-06-19 05:00:00 16.1 6 Oeste 21 Oeste 0 935.7 -0.1 59
2019-06-19 04:00:00 18 11 Sudoeste 22 Oeste 0 935.6 -0.1 53
2019-06-19 03:00:00 18.7 11 Sudoeste 23 Oeste 0 935.7 0 50
2019-06-19 02:00:00 19.1 12 Oeste 16 Sudoeste 0 935.8 0.7 46
2019-06-19 01:00:00 20.7 7 Oeste 27 Oeste 0 935.7 1.3 41
2019-06-19 00:00:00 21.6 12 Oeste 28 Oeste 0 935.7 1.5 38
2019-06-18 23:00:00 22.8 10 Noroeste 31 Oeste 0 935.1 1.3 28
2019-06-18 22:00:00 25.8 16 Sudoeste -- -- 0 934.4 0.9 18
2019-06-18 21:00:00 27.9 21 Sudoeste -- -- 0 934.2 0.7 10
2019-06-18 20:00:00 29.2 -- -- -- -- 0 933.8 0.1 10
2019-06-18 19:00:00 30 -- -- -- -- 0 933.5 -0.8 12
2019-06-18 18:00:00 30.5 24 Sudoeste -- -- 0 933.5 -1.1 12
2019-06-18 17:00:00 30.1 21 Sudoeste 45 Sudoeste 0 933.7 -1.5 13
2019-06-18 16:00:00 30.1 26 Sudoeste 57 Sudoeste 0 934.3 -1.2 13
2019-06-18 15:00:00 29.9 22 Sudoeste 48 Oeste 0 934.6 -1.2 14
2019-06-18 14:00:00 28.4 18 Sudoeste 48 Sudoeste 0 935.2 -0.5 17
2019-06-18 13:00:00 27.5 18 Sudoeste 38 Sudoeste 0 935.5 -- 20
2019-06-18 12:00:00 26 16 Sudoeste 36 Sur 0 935.8 0.1 20
2019-06-18 11:00:00 23.9 21 Sudoeste -- -- -- 935.7 0.3 24
2019-06-18 10:00:00 -- -- -- -- -- -- -- -- --
2019-06-18 09:00:00 22 -- -- -- -- 0 935.7 0.8 19
2019-06-18 08:00:00 19.5 14 Sudoeste -- -- 0 935.4 0.6 20
2019-06-18 07:00:00 18.6 -- -- -- -- 0 935 0 24
2019-06-18 06:00:00 20.7 -- -- -- -- 0 934.9 -0.5 19
2019-06-18 05:00:00 19.9 3 Sur 9 Sudoeste 0 934.8 -0.5 20
2019-06-18 04:00:00 20.4 7 Sudoeste 11 Oeste 0 935 0 20
2019-06-18 03:00:00 20.8 4 Oeste 13 Norte 0 935.4 0.4 19
2019-06-18 02:00:00 21.6 7 Noroeste 15 Sudoeste 0 935.3 0.7 18
2019-06-18 01:00:00 24.3 -- -- -- -- 0 935 0.7 15
2019-06-18 00:00:00 25.7 -- -- -- -- 0 935 1 14
2019-06-17 23:00:00 26.8 -- -- -- -- 0 934.6 0.7 13
2019-06-17 22:00:00 28.4 -- -- -- -- 0 934.3 0.2 14
2019-06-17 21:00:00 29.7 13 Sudoeste -- -- 0 934 -0.6 13
2019-06-17 20:00:00 30.9 -- -- -- -- 0 933.9 -1.2 12
2019-06-17 19:00:00 31.1 -- -- -- -- 0 934.1 -1.6 13
2019-06-17 18:00:00 31 14 Sur 31 Sudoeste 0 934.6 -1.8 12
2019-06-17 17:00:00 31.1 14 Sur 33 Sur 0 935.1 -2.2 12
2019-06-17 16:00:00 30.7 13 Sur 44 Sudoeste 0 935.7 -2 13
2019-06-17 15:00:00 29.7 8 Sudoeste 26 Sur 0 936.4 -- 15
2019-06-17 14:00:00 28.7 8 Sudeste 21 Este 0 937.3 -1 16
2019-06-17 13:00:00 27.5 5 Oeste -- -- -- 937.7 -0.6 18
2019-06-17 12:00:00 -- -- -- -- -- -- -- -- --
2019-06-17 11:00:00 24.9 5 Sudeste 13 Sudoeste 0 938.3 0.4 21
2019-06-17 10:00:00 21.8 6 Sudoeste 22 Oeste 0 938.3 0.9 27
2019-06-17 09:00:00 19.7 10 Sudoeste 20 Sudoeste 0 938.1 0.8 31
2019-06-17 08:00:00 15.6 9 Oeste 19 Sudoeste 0 937.9 0.6 38
2019-06-17 07:00:00 14.4 4 Sudoeste 18 Sudoeste 0 937.4 0.1 37
2019-06-17 06:00:00 14.8 11 Sudoeste 17 Sudoeste 0 937.3 -0.3 34
2019-06-17 05:00:00 15.1 7 Sudoeste 14 Oeste 0 937.3 -0.4 32
2019-06-17 04:00:00 16 10 Sudoeste 21 Sudoeste 0 937.3 -0.5 31
2019-06-17 03:00:00 17.1 9 Sudoeste 21 Sudoeste 0 937.6 0 28
2019-06-17 02:00:00 17.3 9 Sudoeste 20 Oeste 0 937.7 0.5 26
2019-06-17 01:00:00 18.7 10 Sudoeste 27 Oeste 0 937.8 1.3 22
2019-06-17 00:00:00 21 13 Oeste 28 Oeste 0 937.6 1.4 20
2019-06-16 23:00:00 24.9 6 Sur 30 Sudoeste 0 937.2 1 14
2019-06-16 22:00:00 26.1 4 Sudeste 13 Sur 0 936.5 0.4 14
2019-06-16 21:00:00 28.8 8 Oeste 23 Oeste 0 936.2 -0.2 11
2019-06-16 20:00:00 28.5 13 Sudoeste 40 Oeste 0 936.2 -0.4 11
2019-06-16 19:00:00 29.9 6 Oeste 34 Oeste 0 936.1 -0.9 11
2019-06-16 18:00:00 29.2 9 Oeste 28 Oeste 0 936.4 -1.2 11
2019-06-16 17:00:00 28.8 13 Norte 30 Nordeste 0 936.6 -1.8 11
2019-06-16 16:00:00 28.8 12 Sur 28 Sur 0 937 -1.7 14
2019-06-16 15:00:00 29 6 Oeste 18 Oeste 0 937.6 -1.3 16
2019-06-16 14:00:00 26.5 4 Sur 23 Este 0 938.4 -0.6 21
2019-06-16 13:00:00 24.7 8 Sudeste 30 Sudeste 0 938.7 -0.3 25
2019-06-16 12:00:00 23.1 12 Este 32 Este 0 938.9 0 31
2019-06-16 11:00:00 20.7 15 Sudeste 39 Este 0 939 0.5 35
2019-06-16 10:00:00 18.5 15 Este 35 Este 0 939 0.9 37
2019-06-16 09:00:00 15.8 0 Calma 19 Nordeste 0 938.9 1 34
2019-06-16 08:00:00 10.9 4 Este 7 Nordeste 0 938.5 0.5 40
2019-06-16 07:00:00 10 4 Este 12 Oeste 0 938.1 -0.4 41
2019-06-16 06:00:00 10.8 0 Calma 12 Oeste 0 937.9 -1 42
2019-06-16 05:00:00 10.9 3 Sudoeste 19 Oeste 0 938 -0.9 39
2019-06-16 04:00:00 13 9 Norte 17 Nordeste 0 938.5 -0.7 35
2019-06-16 03:00:00 14 5 Sur 11 Este 0 938.9 -0.2 33
2019-06-16 02:00:00 13.9 5 Oeste 21 Norte 0 938.9 0.2 32
2019-06-16 01:00:00 16.3 9 Norte 22 Oeste 0 939.2 1.2 29
2019-06-16 00:00:00 16.7 12 Oeste 24 Norte 0 939.1 1.6 27
2019-06-15 23:00:00 19.6 9 Norte 23 Norte 0 938.7 1.4 24
2019-06-15 22:00:00 22.5 8 Norte 33 Norte 0 938 0.7 21
2019-06-15 21:00:00 25.1 5 Sudeste 21 Este 0 937.5 -0.1 18
2019-06-15 20:00:00 25.2 5 Sudeste 22 Nordeste 0 937.3 -0.8 18
2019-06-15 19:00:00 26 6 Sur 29 Sudoeste 0 937.3 -1.3 17
2019-06-15 18:00:00 25.6 9 Sur 29 Sur 0 937.6 -1.4 19
2019-06-15 17:00:00 24.2 8 Este 27 Este 0 938.1 -1.4 22
2019-06-15 16:00:00 23.4 8 Noroeste 24 Sudeste 0 938.6 -1.2 24
2019-06-15 15:00:00 22.6 10 Sudoeste 38 Norte 0 939 -0.9 25
2019-06-15 14:00:00 21.7 14 Noroeste 28 Noroeste 0 939.5 -0.4 26
2019-06-15 13:00:00 19.4 13 Norte 28 Noroeste 0 939.8 0 32
2019-06-15 12:00:00 18 8 Norte 21 Norte 0 939.9 0.5 35
2019-06-15 11:00:00 16.3 7 Norte 22 Norte 0 939.9 0.8 42
2019-06-15 10:00:00 15.3 8 Noroeste 19 Oeste 0 939.8 1.2 46
2019-06-15 09:00:00 13.6 3 Sudoeste 10 Sudeste 0 939.4 1.4 48
2019-06-15 08:00:00 10.2 5 Este 18 Este 0 939.1 1.1 55
2019-06-15 07:00:00 8.8 4 Este 24 Este 0 938.6 0.6 60
2019-06-15 06:00:00 9.3 10 Oeste 31 Oeste 0 938 -0.1 57
2019-06-15 05:00:00 9.6 8 Oeste 13 Sudoeste 0 938 0.2 55
2019-06-15 04:00:00 11 7 Noroeste 12 Norte 0 938 0.1 52
2019-06-15 03:00:00 13 7 Oeste 18 Oeste 0 938.1 1 47
2019-06-15 02:00:00 14.1 13 Oeste 22 Sudoeste 0 937.8 1.5 44
2019-06-15 01:00:00 15.1 12 Oeste 23 Oeste 0 937.9 2.4 41
2019-06-15 00:00:00 16.3 14 Oeste 31 Oeste 0 937.1 2.3 37
2019-06-14 23:00:00 17.2 15 Oeste 44 Oeste 0 936.3 2.2 33
2019-06-14 22:00:00 18.7 19 Oeste 49 Oeste 0 935.5 2 29
2019-06-14 21:00:00 21.2 24 Oeste 47 Oeste 0 934.8 1.3 25
2019-06-14 20:00:00 22.9 22 Sudoeste 45 Sudoeste 0 934.1 0.5 22
2019-06-14 19:00:00 23.6 24 Sudoeste 46 Sudoeste 0 933.5 -0.1 21
2019-06-14 18:00:00 24.7 19 Sudoeste 44 Sudoeste 0 933.5 -0.1 19
2019-06-14 17:00:00 24.7 23 Sudoeste 45 Oeste 0 933.6 -0.1 19
2019-06-14 16:00:00 24.4 21 Sudoeste 49 Sudoeste 0 933.6 0.2 22
2019-06-14 15:00:00 24.1 26 Sudoeste 58 Sudoeste 0 933.6 0.4 22
2019-06-14 14:00:00 23.9 26 Sudoeste 48 Sudoeste 0 933.7 0.5 20
2019-06-14 13:00:00 23.1 24 Sudoeste 46 Sudoeste 0 933.4 0.3 23
2019-06-14 12:00:00 21.7 19 Sudoeste 47 Sur 0 933.2 0.5 27
2019-06-14 11:00:00 21 21 Sudoeste 43 Sudoeste 0 933.2 1 29
2019-06-14 10:00:00 20.1 15 Sudoeste 30 Sudoeste 0 933.1 1.3 32
2019-06-14 09:00:00 17.8 5 Sudoeste 16 Noroeste 0 932.7 1.4 31
2019-06-14 08:00:00 14.5 4 Sur 19 Oeste 0 932.2 1 37
2019-06-14 07:00:00 14.5 15 Oeste 23 Oeste 0 931.8 0.6 39
2019-06-14 06:00:00 14.9 6 Sudoeste 17 Sudoeste 0 931.3 0.2 65
2019-06-14 05:00:00 15.9 3 Sur 18 Sudoeste 0 931.2 -0.1 64
2019-06-14 04:00:00 15.7 6 Oeste 20 Oeste 0 931.2 -0.5 61
2019-06-14 03:00:00 16.8 6 Nordeste 19 Este 0 931.1 -0.4 61
2019-06-14 02:00:00 17.7 9 Nordeste 24 Este 0 931.3 0.9 59
2019-06-14 01:00:00 19.7 12 Este 30 Este 0 931.7 2.3 52
2019-06-14 00:00:00 21.2 15 Este 37 Sudeste 0 931.5 2.9 49
2019-06-13 23:00:00 23.1 15 Este 36 Este 0 930.4 2.1 41
2019-06-13 22:00:00 25.1 4 Noroeste 25 Sur 0 929.4 0.9 21
2019-06-13 21:00:00 27.1 12 Sur 35 Sudoeste 0 928.6 -0.2 21
2019-06-13 20:00:00 27.5 13 Sudoeste 46 Sudeste 0 928.3 -0.9 19
2019-06-13 19:00:00 28.3 17 Sudoeste 33 Sur 0 928.5 -1.3 20
2019-06-13 18:00:00 28.4 14 Sur 27 Sudoeste 0 928.8 -1.3 21
2019-06-13 17:00:00 28.4 12 Sur 28 Sur 0 929.2 -1.4 21
2019-06-13 16:00:00 27.3 11 Sudeste 34 Sudoeste 0 929.8 -1.1 22
2019-06-13 15:00:00 26.3 11 Oeste 33 Sudoeste 0 930.1 -1.2 23
2019-06-13 14:00:00 25.6 15 Sudoeste 41 Sudeste 0 930.6 -0.8 23
2019-06-13 13:00:00 25.2 14 Sur 37 Sur 0 930.9 -0.8 26
2019-06-13 12:00:00 23.4 17 Sudeste 33 Sudeste 0 931.3 0.1 27
2019-06-13 11:00:00 21.2 13 Sudeste 28 Sudeste 0 931.4 0.5 28
2019-06-13 10:00:00 18.4 13 Sudeste 25 Sur 0 931.7 1.1 42
2019-06-13 09:00:00 15.3 8 Sudeste 19 Sur 0 931.2 0.5 62
2019-06-13 08:00:00 12.2 2 Sudoeste 9 Sudeste 0 930.9 0.6 76
2019-06-13 07:00:00 10.6 4 Este 12 Norte 0 930.6 0.2 81
2019-06-13 06:00:00 11.4 0 Calma 13 Sur 0 930.7 0.2 77
2019-06-13 05:00:00 11.6 8 Este 16 Este 0 930.3 -0.5 76
2019-06-13 04:00:00 12.8 10 Este 13 Este 0 930.4 -0.5 72
2019-06-13 03:00:00 14.3 9 Sudeste 14 Sur 0 930.5 -0.1 63
2019-06-13 02:00:00 15.4 8 Sudeste 15 Este 0 930.8 0.4 53
2019-06-13 01:00:00 16.1 10 Este 20 Este 0 930.9 1 29
2019-06-13 00:00:00 17 5 Noroeste 24 Oeste 0 930.6 0.9 16
2019-06-12 23:00:00 18.8 7 Noroeste 23 Oeste 0 930.4 0.7 14
2019-06-12 22:00:00 22.1 10 Oeste 28 Oeste 0 929.9 0.1 12
2019-06-12 21:00:00 25.3 10 Oeste 32 Oeste 0 929.7 -0.8 12
2019-06-12 20:00:00 25.9 16 Sudoeste 33 Oeste 0 929.7 -1.3 11
2019-06-12 19:00:00 26.5 15 Oeste 39 Sudoeste 0 929.8 -1.8 11
2019-06-12 18:00:00 26.2 13 Sudoeste 31 Oeste 0 930.5 -2 12
2019-06-12 17:00:00 25.1 7 Sur 36 Sudoeste 0 931 -2.2 13
2019-06-12 16:00:00 24.8 8 Sur 30 Sudeste 0 931.6 -2 17
2019-06-12 15:00:00 22.8 13 Sudeste 32 Sudeste 0 932.5 -1.5 19
2019-06-12 14:00:00 22.1 8 Sudeste 23 Sudeste 0 933.2 -0.9 20
2019-06-12 13:00:00 20.7 13 Este 28 Sudeste 0 933.6 -0.6 22
2019-06-12 12:00:00 20.2 11 Sudeste 34 Este 0 934 -0.1 24
2019-06-12 11:00:00 18 13 Sudeste 39 Este 0 934.1 0.1 38
2019-06-12 10:00:00 15.5 18 Este 36 Este 0 934.2 0.6 45
2019-06-12 09:00:00 12.1 11 Sudeste 25 Este 0 934.1 0.7 61
2019-06-12 08:00:00 10.3 5 Sur 22 Sur 0 934 0.5 67
2019-06-12 07:00:00 8.2 4 Sudeste 21 Este 0 933.6 -0.2 68
2019-06-12 06:00:00 8.9 6 Este 20 Este 0 933.4 -0.6 58
2019-06-12 05:00:00 9.6 5 Sudeste 21 Este 0 933.5 -0.7 50
2019-06-12 04:00:00 9.1 7 Este 24 Este 0 933.8 -0.4 41
2019-06-12 03:00:00 10.1 11 Nordeste 30 Nordeste 0 934 -0.3 33
2019-06-12 02:00:00 11.2 15 Nordeste 30 Nordeste 0 934.2 0.1 30
2019-06-12 01:00:00 13.3 14 Nordeste 33 Nordeste 0 934.2 0.6 26
2019-06-12 00:00:00 14 9 Norte 24 Norte 0 934.3 1.1 26
2019-06-11 23:00:00 15.4 7 Nordeste 26 Norte 0 934.1 1.4 24
2019-06-11 22:00:00 17.5 13 Nordeste 33 Norte 0 933.6 0.9 21
2019-06-11 21:00:00 19.2 16 Norte 36 Norte 0 933.2 0.4 21
2019-06-11 20:00:00 20 19 Norte 43 Norte 0 932.7 0.1 22
2019-06-11 19:00:00 20 22 Norte 50 Norte 0 932.7 0.3 26
2019-06-11 18:00:00 18.8 17 Nordeste 48 Norte 0 932.8 0.3 30
2019-06-11 17:00:00 19.9 22 Norte 54 Norte 0 932.6 0.6 31
2019-06-11 16:00:00 19.1 21 Norte 48 Norte 0 932.4 0.6 33
2019-06-11 15:00:00 20 22 Norte 44 Norte 0 932.5 0.9 31
2019-06-11 14:00:00 19.5 23 Norte 46 Norte 0 932 0.4 33
2019-06-11 13:00:00 19.2 18 Norte 39 Noroeste 0 931.8 0.4 33
2019-06-11 12:00:00 19.1 16 Norte 33 Norte 0 931.6 0.3 33
2019-06-11 11:00:00 18 17 Norte 32 Noroeste 0 931.6 0.4 37
2019-06-11 10:00:00 17.2 18 Noroeste 32 Noroeste 0 931.4 0.2 39
2019-06-11 09:00:00 14.7 9 Oeste 14 Norte 0 931.3 -0.1 44
2019-06-11 08:00:00 11.7 5 Oeste 12 Norte 0 931.2 -0.4 47
2019-06-11 07:00:00 11.7 8 Noroeste 21 Norte 0 931.2 -0.7 43
2019-06-11 06:00:00 12.9 12 Noroeste 21 Oeste 0 931.4 -1 35
2019-06-11 05:00:00 13.7 10 Oeste 24 Oeste 0 931.6 -1.2 30
2019-06-11 04:00:00 13.5 11 Oeste 24 Oeste 0 931.9 -1.2 30
2019-06-11 03:00:00 14.3 7 Noroeste 22 Oeste 0 932.4 -0.9 28
2019-06-11 02:00:00 15.6 9 Oeste 23 Oeste 0 932.8 -0.2 28
2019-06-11 01:00:00 17.8 14 Oeste 24 Oeste 0 933.1 0.5 26
2019-06-11 00:00:00 18.2 13 Oeste 24 Oeste 0 933.3 0.9 24
2019-06-10 23:00:00 19.8 13 Oeste 24 Oeste 0 933 0.5 21
2019-06-10 22:00:00 22.9 12 Noroeste 42 Noroeste 0 932.6 -0.4 18
2019-06-10 21:00:00 25.3 18 Noroeste 42 Noroeste 0 932.4 -1 16
2019-06-10 20:00:00 26.3 16 Noroeste 36 Noroeste 0 932.5 -1.4 16
2019-06-10 19:00:00 26.6 9 Noroeste 36 Oeste 0 933 -1.5 16
2019-06-10 18:00:00 26.7 15 Noroeste 37 Oeste 0 933.4 -1.8 18
2019-06-10 17:00:00 26.1 14 Noroeste 40 Oeste 0 933.9 -2 19
2019-06-10 16:00:00 25.1 9 Noroeste 34 Noroeste 0 934.5 -1.8 20
2019-06-10 15:00:00 24.3 11 Oeste 33 Oeste 0 935.2 -1.4 22
2019-06-10 14:00:00 23.3 10 Noroeste 36 Noroeste 0 935.9 -0.9 24
2019-06-10 13:00:00 22.7 12 Noroeste 31 Norte 0 936.3 -0.4 26
2019-06-10 12:00:00 21.3 16 Oeste 29 Norte 0 936.6 0 28
2019-06-10 11:00:00 19.7 18 Norte 31 Noroeste 0 936.8 0.2 36
2019-06-10 10:00:00 18.3 18 Norte 30 Norte 0 936.7 0.6 40
2019-06-10 09:00:00 16.2 14 Oeste 23 Oeste 0 936.6 0.6 45
2019-06-10 08:00:00 12.6 10 Noroeste 16 Oeste 0 936.6 -0.1 53
2019-06-10 07:00:00 11.5 10 Oeste 14 Oeste 0 936.1 -0.9 52
2019-06-10 06:00:00 13 10 Oeste 17 Oeste 0 936 -1 49
2019-06-10 05:00:00 13.1 13 Oeste 18 Noroeste 0 936.7 0.1 46
2019-06-10 04:00:00 13.8 13 Oeste 20 Oeste 0 937 0.3 41
2019-06-10 03:00:00 15.1 13 Oeste 22 Oeste 0 937 0.4 39
2019-06-10 02:00:00 16 10 Oeste 21 Oeste 0 936.6 0.4 36
2019-06-10 01:00:00 17.7 14 Oeste 24 Oeste 0 936.7 1.1 33
2019-06-10 00:00:00 17.8 17 Oeste 24 Oeste 0 936.6 1.4 27
2019-06-09 23:00:00 20.1 12 Sudoeste 26 Sudoeste 0 936.2 1.4 21
2019-06-09 22:00:00 22.2 18 Sudoeste 32 Oeste 0 935.6 0.9 17
2019-06-09 21:00:00 24.5 20 Oeste 49 Oeste 0 935.2 0.3 16
2019-06-09 20:00:00 25.7 22 Sudoeste 42 Sudoeste 0 934.8 -0.3 14
2019-06-09 19:00:00 26.6 20 Sudoeste 44 Sudoeste 0 934.7 -0.8 13
2019-06-09 18:00:00 27.1 21 Sudoeste 44 Sudoeste 0 934.9 -1.1 14
2019-06-09 17:00:00 26.9 18 Oeste 37 Sudoeste 0 935.1 -1.4 14
2019-06-09 16:00:00 26.8 21 Oeste 43 Sudoeste 0 935.5 -1.4 15
2019-06-09 15:00:00 26.3 16 Sudoeste 42 Oeste 0 936 -1.2 18
2019-06-09 14:00:00 25.9 17 Oeste 40 Sudoeste 0 936.5 -0.9 19
2019-06-09 13:00:00 25.1 18 Sudoeste 38 Sudoeste 0 936.9 -0.6 21
2019-06-09 12:00:00 23.6 9 Noroeste 25 Sur 0 937.2 -0.2 23
2019-06-09 11:00:00 21.5 9 Oeste 23 Oeste 0 937.4 0.4 27
2019-06-09 10:00:00 20.2 5 Sudeste 18 Nordeste 0 937.5 0.5 40
2019-06-09 09:00:00 17.5 2 Sur 12 Oeste 0 937.4 0.4 54
2019-06-09 08:00:00 11.7 8 Noroeste 18 Oeste 0 937 0 68
2019-06-09 07:00:00 11.1 9 Noroeste 19 Oeste 0 937 0 72
2019-06-09 06:00:00 11.3 5 Oeste 18 Oeste 0 937 -0.5 70
2019-06-09 05:00:00 12.4 8 Oeste 19 Oeste 0 937 -0.4 66
2019-06-09 04:00:00 14.4 8 Norte 18 Norte 0 937 -0.6 62
2019-06-09 03:00:00 15.5 5 Este 18 Este 0 937.5 -0.1 60
2019-06-09 02:00:00 16.5 13 Este 27 Este 0 937.4 0.1 59
2019-06-09 01:00:00 17.9 13 Este 31 Sudeste 0 937.6 1.3 55
2019-06-09 00:00:00 19.2 15 Sudeste 45 Este 0 937.6 1.8 51
2019-06-08 23:00:00 20.9 24 Sudeste 51 Este 0 937.3 1.5 46
2019-06-08 22:00:00 26.3 4 Sudoeste 22 Sudeste 0 936.3 0.8 15
2019-06-08 21:00:00 27.6 12 Sur 41 Sur 0 935.8 0.1 14
2019-06-08 20:00:00 28.8 22 Sudoeste 39 Sudoeste 0 935.8 -0.3 14
2019-06-08 19:00:00 29.6 22 Sudoeste 43 Sudoeste 0 935.5 -1.3 13
2019-06-08 18:00:00 30.1 10 Sudoeste 32 Sudoeste 0 935.7 -1.9 14
2019-06-08 17:00:00 29.3 12 Sudoeste 36 Sudeste 0 936.1 -2 15
2019-06-08 16:00:00 28.3 7 Sudeste 33 Sur 0 936.8 -1.5 16
2019-06-08 15:00:00 28 14 Sur 38 Sur 0 937.6 -1.1 19
2019-06-08 14:00:00 27 14 Sur 42 Sur 0 938.1 -0.9 20
2019-06-08 13:00:00 25.4 19 Sudeste 42 Sudeste 0 938.3 -0.8 29
2019-06-08 12:00:00 23.3 17 Sudeste 42 Sudeste 0 938.7 -0.6 32
2019-06-08 11:00:00 20.9 21 Sudeste 45 Este 0 939 -0.2 37
2019-06-08 10:00:00 17.9 21 Sudeste 42 Este 0 939.1 -0.2 46
2019-06-08 09:00:00 13.7 0 Calma 11 Oeste 0 939.3 -0.1 36
2019-06-08 08:00:00 9.3 4 Norte 14 Norte 0 939.2 -0.1 39
2019-06-08 07:00:00 7.1 7 Noroeste 21 Oeste 0 939.3 -0.2 42
2019-06-08 06:00:00 7.5 4 Norte 7 Noroeste 0 939.4 -0.2 39
2019-06-08 05:00:00 8.2 4 Noroeste 13 Norte 0 939.3 -0.3 38
2019-06-08 04:00:00 8.4 6 Noroeste 16 Oeste 0 939.5 0 36
2019-06-08 03:00:00 10.8 7 Noroeste 11 Norte 0 939.6 0.1 32
2019-06-08 02:00:00 11.3 4 Oeste 18 Norte 0 939.6 0.7 32
2019-06-08 01:00:00 12.8 9 Noroeste 20 Norte 0 939.5 1.2 28
2019-06-08 00:00:00 14.8 8 Norte 23 Norte 0 939.5 1.7 25
2019-06-07 23:00:00 16.3 13 Norte 26 Norte 0 938.9 1.5 22
2019-06-07 22:00:00 19.1 10 Norte 29 Norte 0 938.3 1.2 19
2019-06-07 21:00:00 21.1 15 Norte 33 Norte 0 937.8 0.8 18
2019-06-07 20:00:00 21.7 13 Nordeste 32 Noroeste 0 937.4 0.3 18
2019-06-07 19:00:00 21.8 12 Nordeste 27 Nordeste 0 937.1 0 18
2019-06-07 18:00:00 21.9 8 Nordeste 33 Norte 0 937 -0.1 20
2019-06-07 17:00:00 22.1 13 Oeste 30 Norte 0 937.1 -0.1 19
2019-06-07 16:00:00 21.3 17 Noroeste 36 Noroeste 0 937.1 0.1 21
2019-06-07 15:00:00 20 11 Noroeste 28 Noroeste 0 937.1 0.4 24
2019-06-07 14:00:00 18.1 7 Noroeste 35 Oeste 0 937.2 0.8 28
2019-06-07 13:00:00 16.7 9 Norte 31 Oeste 0 937 0.9 31
2019-06-07 12:00:00 15.7 12 Oeste 36 Oeste 0 936.7 1.7 35
2019-06-07 11:00:00 14.3 17 Noroeste 39 Oeste 0 936.4 2.6 42
2019-06-07 10:00:00 13.3 16 Noroeste 36 Oeste 0 936.1 3 55
2019-06-07 09:00:00 12.6 18 Noroeste 40 Oeste 0 935 2.7 59
2019-06-07 08:00:00 12.8 17 Oeste 37 Sudoeste 0 933.8 2 65
2019-06-07 07:00:00 13.4 23 Oeste 41 Oeste 0 933.1 1.5 73
2019-06-07 06:00:00 15 18 Sudoeste 35 Sudoeste 0 932.3 1 69
2019-06-07 05:00:00 15.3 18 Sudoeste 35 Oeste 0 931.8 0.7 63
2019-06-07 04:00:00 15.8 20 Oeste 36 Sudoeste 0 931.6 0.7 59
2019-06-07 03:00:00 15.1 14 Sudoeste 35 Sudoeste 0 931.3 0.7 46
2019-06-07 02:00:00 16.5 21 Sudoeste 39 Sudoeste 0 931.1 1.3 42
2019-06-07 01:00:00 17.6 24 Sudoeste 37 Sudoeste 0 930.9 1.5 33
2019-06-07 00:00:00 18.5 16 Sudoeste 37 Sudoeste 0 930.6 1.4 25
2019-06-06 23:00:00 20.3 15 Sudoeste 33 Sudoeste 0 929.8 0.8 22
2019-06-06 22:00:00 21.8 22 Sudoeste 48 Sudoeste 0 929.4 0.1 20
2019-06-06 21:00:00 23.5 25 Sudoeste 47 Sudoeste 0 929.2 -0.8 19
2019-06-06 20:00:00 24.6 22 Sudoeste 46 Sudoeste 0 929 -1.6 17
2019-06-06 19:00:00 25.1 23 Sudoeste 55 Sudoeste 0 929.3 -2.3 16
2019-06-06 18:00:00 25.3 24 Sudoeste 50 Sudoeste 0 930 -2.4 17
2019-06-06 17:00:00 24.7 25 Sudoeste 55 Sur 0 930.6 -2.3 16
2019-06-06 16:00:00 24.5 20 Sudoeste 50 Sudoeste 0 931.6 -1.7 16
2019-06-06 15:00:00 23.2 22 Sudoeste 48 Sur 0 932.4 -1.2 19
2019-06-06 14:00:00 22.1 16 Sur 46 Sudoeste 0 932.9 -1 19
2019-06-06 13:00:00 20.4 17 Sudoeste 43 Sur 0 933.3 -0.9 26
2019-06-06 12:00:00 19.4 18 Sudoeste 38 Sur 0 933.6 -0.8 28
2019-06-06 11:00:00 17.9 8 Sur 20 Este 0 933.9 -0.5 31
2019-06-06 10:00:00 16.5 5 Sudoeste 15 Sudoeste 0 934.2 -0.1 34
2019-06-06 09:00:00 13.4 4 Sudoeste 18 Este 0 934.4 0.1 40
2019-06-06 08:00:00 10.2 6 Sudeste 19 Este 0 934.4 0.2 47
2019-06-06 07:00:00 9.5 4 Sur 21 Sudoeste 0 934.3 -0.1 47
2019-06-06 06:00:00 9.2 4 Oeste 11 Norte 0 934.3 0.1 48
2019-06-06 05:00:00 9.4 7 Oeste 18 Oeste 0 934.2 -0.2 46
2019-06-06 04:00:00 10.8 9 Oeste 16 Oeste 0 934.4 -0.2 42
2019-06-06 03:00:00 12.3 6 Sudoeste 19 Oeste 0 934.2 -0.2 38
2019-06-06 02:00:00 12.1 9 Oeste 15 Oeste 0 934.4 0.4 37
2019-06-06 01:00:00 13 8 Oeste 17 Sudoeste 0 934.6 1.2 34
2019-06-06 00:00:00 13.9 11 Oeste 19 Oeste 0 934.4 1.4 32
2019-06-05 23:00:00 15.1 10 Oeste 24 Oeste 0 934 1.2 29
2019-06-05 22:00:00 17.6 13 Oeste 31 Noroeste 0 933.4 0.6 24
2019-06-05 21:00:00 20.1 18 Noroeste 30 Norte 0 933 0.2 21
2019-06-05 20:00:00 21.3 18 Noroeste 39 Oeste 0 932.8 -0.4 19
2019-06-05 19:00:00 21.8 21 Noroeste 48 Oeste 0 932.8 -0.6 19
2019-06-05 18:00:00 21.5 18 Noroeste 46 Oeste 0 932.8 -0.6 19
2019-06-05 17:00:00 21.7 14 Oeste 50 Oeste 0 933.2 -0.1 20
2019-06-05 16:00:00 20.8 19 Oeste 49 Oeste 0 933.4 0.2 22
2019-06-05 15:00:00 19.9 23 Noroeste 55 Noroeste 0 933.4 0.4 23
2019-06-05 14:00:00 19.5 24 Noroeste 49 Noroeste 0 933.3 0.5 26
2019-06-05 13:00:00 18.6 24 Oeste 51 Oeste 0 933.2 0.8 29
2019-06-05 12:00:00 17.2 21 Oeste 45 Oeste 0 933 1.3 34
2019-06-05 11:00:00 15.8 19 Oeste 40 Oeste 0 932.8 1.5 43
2019-06-05 10:00:00 13.8 22 Oeste 46 Oeste 0 932.4 1.8 51
2019-06-05 09:00:00 12.3 18 Sudoeste 34 Oeste 0 931.7 1.7 56
2019-06-05 08:00:00 11.2 16 Sudoeste 35 Sudoeste 0 931.3 1.7 61
2019-06-05 07:00:00 11.5 20 Oeste 44 Oeste 0 930.6 0.8 52
2019-06-05 06:00:00 13.8 23 Sudoeste 46 Oeste 0 930 0.1 54
2019-06-05 05:00:00 15.6 26 Oeste 46 Oeste 0 929.6 -0.3 50
2019-06-05 04:00:00 16.6 23 Oeste 43 Oeste 0 929.8 -0.2 54
2019-06-05 03:00:00 18.5 19 Oeste 43 Oeste 0 929.9 -0.3 53
2019-06-05 02:00:00 18.7 8 Noroeste 28 Oeste 0 929.9 0.3 54
2019-06-05 01:00:00 19.6 12 Noroeste 39 Noroeste 0 930 1 49
2019-06-05 00:00:00 20.7 19 Noroeste 37 Oeste 0 930.2 1.2 42
2019-06-04 23:00:00 22.1 17 Oeste 36 Oeste 0 929.6 0.4 36
2019-06-04 22:00:00 23.4 24 Oeste 43 Oeste 0 929 -0.5 30
2019-06-04 21:00:00 26.1 25 Oeste 44 Oeste 0 929 -0.8 24
2019-06-04 20:00:00 27.7 27 Oeste 49 Oeste 0 929.2 -1.3 22
2019-06-04 19:00:00 28.6 21 Sudoeste 50 Oeste 0 929.5 -1.5 22
2019-06-04 18:00:00 28.9 27 Oeste 52 Sudoeste 0 929.8 -1.9 23
2019-06-04 17:00:00 28.8 20 Sudoeste 57 Oeste 0 930.5 -1.9 21
2019-06-04 16:00:00 29 25 Oeste 52 Sudoeste 0 931 -2 23
2019-06-04 15:00:00 29.1 28 Sudoeste 49 Sudoeste 0 931.7 -1.4 22
2019-06-04 14:00:00 28.3 25 Sudoeste 49 Oeste 0 932.4 -0.8 23
2019-06-04 13:00:00 27.2 25 Sudoeste 44 Sudoeste 0 933 -0.5 26
2019-06-04 12:00:00 26.4 22 Sudoeste 40 Sudoeste 0 933.1 -0.3 27
2019-06-04 11:00:00 25.5 12 Sudoeste 30 Sudoeste 0 933.2 -0.2 30
2019-06-04 10:00:00 23.1 10 Oeste 28 Oeste 0 933.5 0.2 38
2019-06-04 09:00:00 20.5 14 Oeste 23 Oeste 0 933.4 0.2 36
2019-06-04 08:00:00 17.9 10 Oeste 20 Oeste 0 933.4 0.1 37
2019-06-04 07:00:00 18.3 12 Sudoeste 23 Sudoeste 0 933.3 -0.3 32
2019-06-04 06:00:00 18.8 6 Sur 23 Sur 0 933.2 -0.7 29
2019-06-04 05:00:00 18.7 8 Sudoeste 23 Sudoeste 0 933.3 -0.9 30
2019-06-04 04:00:00 18.3 12 Oeste 24 Oeste 0 933.6 -0.8 29
2019-06-04 03:00:00 19.4 7 Oeste 24 Oeste 0 933.9 -0.6 28
2019-06-04 02:00:00 19.9 9 Sudoeste 20 Sudoeste 0 934.2 0 26
2019-06-04 01:00:00 21 9 Sudoeste 23 Sudoeste 0 934.4 0.5 24
2019-06-04 00:00:00 22 6 Sudoeste 13 Norte 0 934.5 0.5 21
2019-06-03 23:00:00 23.1 7 Noroeste 14 Norte 0 934.2 0.1 18
2019-06-03 22:00:00 27.4 10 Noroeste 21 Oeste 0 933.9 -0.5 14
2019-06-03 21:00:00 30.9 16 Oeste 35 Oeste 0 934 -0.7 11
2019-06-03 20:00:00 32.3 18 Oeste 41 Sudoeste 0 934.1 -1.1 11
2019-06-03 19:00:00 33 20 Oeste 40 Sudoeste 0 934.4 -1.5 10
2019-06-03 18:00:00 33.4 15 Sudoeste 43 Oeste 0 934.7 -1.7 11
2019-06-03 17:00:00 33.4 13 Oeste 38 Oeste 0 935.2 -1.7 11
2019-06-03 16:00:00 33.1 20 Oeste 43 Oeste 0 935.9 -1.6 11
2019-06-03 15:00:00 32.8 18 Sudoeste 40 Sudoeste 0 936.4 -1.2 12
2019-06-03 14:00:00 32.7 16 Sudoeste 37 Sudoeste 0 936.9 -0.7 12
2019-06-03 13:00:00 31.4 15 Oeste 31 Oeste 0 937.5 -0.2 13
2019-06-03 12:00:00 29.8 8 Noroeste 20 Oeste 0 937.6 0.2 12
2019-06-03 11:00:00 26.8 7 Sudoeste 15 Sudoeste 0 937.6 0.4 19
2019-06-03 10:00:00 24.8 6 Oeste 23 Oeste 0 937.7 0.8 24
2019-06-03 09:00:00 20.3 6 Sudoeste 19 Sudoeste 0 937.4 0.7 32
2019-06-03 08:00:00 16.2 4 Este 17 Este 0 937.2 0.8 40
2019-06-03 07:00:00 16.4 7 Sudeste 20 Sudoeste 0 936.9 0.2 37
2019-06-03 06:00:00 17.4 9 Este 24 Este 0 936.7 -0.2 34
2019-06-03 05:00:00 19.2 5 Oeste 25 Oeste 0 936.4 -0.8 31
2019-06-03 04:00:00 19.3 13 Oeste 32 Oeste 0 936.7 -0.6 30
2019-06-03 03:00:00 21.7 7 Sudoeste 17 Sudeste 0 936.9 -0.5 27
2019-06-03 02:00:00 22.1 5 Sur 19 Sur 0 937.2 0.4 24
2019-06-03 01:00:00 23.2 2 Sur 13 Sudoeste 0 937.3 1.2 24
2019-06-03 00:00:00 24.6 6 Sudoeste 17 Norte 0 937.4 1.5 22
2019-06-02 23:00:00 27.6 6 Sur 17 Sur 0 936.8 0.9 17
2019-06-02 22:00:00 29.6 6 Sur 19 Sudeste 0 936.1 0 14
2019-06-02 21:00:00 31.2 12 Sudeste 21 Sudeste 0 935.9 -0.5 13
2019-06-02 20:00:00 32.5 9 Sur 22 Sudeste 0 935.9 -0.8 12
2019-06-02 19:00:00 33.1 8 Sur 29 Este 0 936.1 -1.2 12
2019-06-02 18:00:00 33.4 11 Sur 34 Sudeste 0 936.4 -1.6 12
2019-06-02 17:00:00 33.2 5 Sudeste 21 Sur 0 936.7 -2.1 13
2019-06-02 16:00:00 32.6 13 Sudeste 21 Sudeste 0 937.3 -2 12
2019-06-02 15:00:00 32 9 Sudeste 17 Sur 0 938 -1.5 13
2019-06-02 14:00:00 30.8 6 Sur 16 Sudeste 0 938.8 -0.7 13
2019-06-02 13:00:00 29.3 6 Sudeste 14 Sudeste 0 939.3 -0.3 17
2019-06-02 12:00:00 26.7 5 Sudeste 26 Este 0 939.5 0 22
2019-06-02 11:00:00 23.2 12 Sudeste 25 Sudeste 0 939.5 0.3 26
2019-06-02 10:00:00 19.5 11 Sudeste 22 Sudeste 0 939.6 0.6 32
2019-06-02 09:00:00 16.5 6 Sudeste 12 Sudeste 0 939.5 0.6 40
2019-06-02 08:00:00 13.7 4 Sudeste 8 Sudeste 0 939.2 0.4 47
2019-06-02 07:00:00 13 3 Sudeste 14 Sur 0 939 0.1 48
2019-06-02 06:00:00 13.7 3 Oeste 19 Sur 0 938.9 -0.2 46
2019-06-02 05:00:00 15.4 7 Sur 17 Sur 0 938.8 -0.2 41
2019-06-02 04:00:00 16.1 13 Este 20 Este 0 938.9 0 38
2019-06-02 03:00:00 17.5 14 Este 25 Este 0 939.1 0.2 30
2019-06-02 02:00:00 20.2 10 Sudeste 23 Este 0 939 0.5 25
2019-06-02 01:00:00 22.4 8 Sur 18 Sudeste 0 938.9 0.8 22
2019-06-02 00:00:00 23.3 7 Sur 14 Sudeste 0 938.9 0.8 21
2019-06-01 23:00:00 25.3 6 Sur 17 Sudeste 0 938.5 0.5 18
2019-06-01 22:00:00 27.2 9 Sudeste 24 Sudeste 0 938.1 0 16
2019-06-01 21:00:00 29.8 12 Sudeste 21 Sudeste 0 938.1 -0.5 14
2019-06-01 20:00:00 30.7 9 Sudeste 20 Sudeste 0 938 -1 14
2019-06-01 19:00:00 31 9 Este 24 Nordeste 0 938.1 -1.4 14
2019-06-01 18:00:00 30.9 9 Sudeste 28 Este 0 938.6 -1.5 14
2019-06-01 17:00:00 30.9 13 Nordeste 25 Nordeste 0 939 -1.8 14
2019-06-01 16:00:00 30.3 14 Este 35 Este 0 939.5 -1.9 16
2019-06-01 15:00:00 29.4 13 Este 25 Este 0 940.1 -1.5 17
2019-06-01 14:00:00 28.4 11 Este 25 Este 0 940.8 -1 18
2019-06-01 13:00:00 27.6 12 Sudeste 30 Este 0 941.4 -0.4 22
2019-06-01 12:00:00 25 12 Sudeste 30 Este 0 941.6 -0.1 28
2019-06-01 11:00:00 22.1 14 Sudeste 28 Sur 0 941.8 0.3 36
2019-06-01 10:00:00 19.1 11 Sudeste 23 Sudeste 0 941.8 0.5 42
2019-06-01 09:00:00 16.2 10 Sudeste 19 Sudeste 0 941.7 0.7 51
2019-06-01 08:00:00 12.8 6 Sudeste 17 Sur 0 941.5 0.5 60
2019-06-01 07:00:00 12.8 5 Sudeste 16 Sur 0 941.3 0.3 62
2019-06-01 06:00:00 13.2 6 Sudeste 17 Sur 0 941 -0.2 59
2019-06-01 05:00:00 14.1 10 Este 15 Sur 0 941 0 56
2019-06-01 04:00:00 15 8 Sudeste 20 Este 0 941 0.1 51
2019-06-01 03:00:00 16.4 11 Este 26 Este 0 941.2 0.3 36
2019-06-01 02:00:00 18.1 9 Sudeste 20 Este 0 941 0.4 29
2019-06-01 01:00:00 20 9 Sudeste 13 Sur 0 940.9 0.5 26
2019-06-01 00:00:00 21.6 7 Sur 14 Sudeste 0 940.9 0.6 23
2019-05-31 23:00:00 23.3 7 Sudeste 14 Sudeste 0 940.6 0.4 20
2019-05-31 22:00:00 25.4 6 Sudeste 20 Sudeste 0 940.4 0 17
2019-05-31 21:00:00 27.9 10 Sudeste 31 Este 0 940.3 -0.3 13
2019-05-31 20:00:00 28.9 15 Este 26 Este 0 940.2 -0.8 13
2019-05-31 19:00:00 29.2 11 Este 31 Este 0 940.4 -1.1 13
2019-05-31 18:00:00 29.1 16 Este 35 Nordeste 0 940.6 -1.4 13
2019-05-31 17:00:00 29 14 Este 34 Este 0 941 -1.5 14
2019-05-31 16:00:00 28.6 14 Este 37 Este 0 941.5 -1.3 16
2019-05-31 15:00:00 27.7 12 Este 35 Este 0 942 -1.1 16
2019-05-31 14:00:00 27.1 14 Nordeste 35 Este 0 942.5 -0.9 19
2019-05-31 13:00:00 26.3 12 Este 35 Este 0 942.8 -0.6 21
2019-05-31 12:00:00 24.6 16 Sudeste 32 Sudeste 0 943.1 -0.3 26
2019-05-31 11:00:00 21.9 13 Sudeste 27 Sudeste 0 943.4 0.2 36
2019-05-31 10:00:00 18.5 12 Sudeste 23 Sudeste 0 943.4 0.7 47
2019-05-31 09:00:00 15.7 5 Sudeste 13 Sur 0 943.4 0.7 54
2019-05-31 08:00:00 13.6 4 Sudeste 28 Este 0 943.2 0.5 61
2019-05-31 07:00:00 11.8 13 Este 29 Este 0 942.7 -0.2 65
2019-05-31 06:00:00 13.6 5 Sudeste 14 Sur 0 942.7 -0.3 58
2019-05-31 05:00:00 13.5 9 Sudeste 14 Sur 0 942.7 -0.2 56
2019-05-31 04:00:00 14.7 9 Este 15 Sudeste 0 942.9 0 46
2019-05-31 03:00:00 15.1 8 Este 23 Este 0 943 0.4 40
2019-05-31 02:00:00 17.2 13 Este 22 Este 0 942.9 0.7 34
2019-05-31 01:00:00 17.4 9 Este 22 Este 0 942.9 1.2 33
2019-05-31 00:00:00 20.4 0 Calma 13 Sudeste 0 942.6 1.2 28
2019-05-30 23:00:00 23.1 6 Sur 18 Sudeste 0 942.2 0.9 24
2019-05-30 22:00:00 24.8 7 Sur 19 Sudeste 0 941.7 0.2 22
2019-05-30 21:00:00 26.9 8 Sudeste 25 Este 0 941.4 -0.3 19
2019-05-30 20:00:00 27.6 10 Este 27 Este 0 941.3 -1 18
2019-05-30 19:00:00 27.9 15 Este 30 Este 0 941.5 -1.2 17
2019-05-30 18:00:00 27.6 14 Este 32 Este 0 941.7 -1.5 17
2019-05-30 17:00:00 27.1 14 Este 37 Este 0 942.3 -1.5 18
2019-05-30 16:00:00 26.5 13 Nordeste 34 Norte 0 942.7 -1.4 19
2019-05-30 15:00:00 25.3 15 Este 33 Este 0 943.2 -1.1 21
2019-05-30 14:00:00 23.4 14 Nordeste 28 Nordeste 0 943.8 -0.6 25
2019-05-30 13:00:00 21.8 12 Nordeste 26 Norte 0 944.1 -0.3 29
2019-05-30 12:00:00 20.1 13 Nordeste 36 Este 0 944.3 -0.1 33
2019-05-30 11:00:00 18.6 21 Este 41 Este 0 944.4 0.5 37
2019-05-30 10:00:00 16.8 14 Este 34 Este 0 944.4 0.9 43
2019-05-30 09:00:00 14.5 3 Nordeste 11 Noroeste 0 944.4 1.3 50
2019-05-30 08:00:00 12.1 4 Nordeste 12 Sur 0 943.9 0.9 57
2019-05-30 07:00:00 11 2 Sur 13 Este 0 943.5 0.3 58
2019-05-30 06:00:00 10.7 6 Sudoeste 35 Nordeste 0 943.1 -0.3 54
2019-05-30 05:00:00 13.5 9 Nordeste 31 Nordeste 0 943 0.1 49
2019-05-30 04:00:00 14.2 9 Norte 23 Norte 0 943.2 0.4 46
2019-05-30 03:00:00 15.3 10 Este 24 Norte 0 943.4 1.1 41
2019-05-30 02:00:00 16.1 14 Nordeste 21 Nordeste 0 942.9 1.3 38
2019-05-30 01:00:00 17.2 14 Nordeste 21 Nordeste 0 942.8 1.9 32
2019-05-30 00:00:00 17.9 10 Este 16 Nordeste 0 942.3 1.8 34
2019-05-29 23:00:00 19.5 10 Este 14 Nordeste 0 941.6 1.4 31
2019-05-29 22:00:00 21.7 9 Nordeste 29 Nordeste 0 940.9 0.6 27
2019-05-29 21:00:00 24.2 18 Nordeste 35 Norte 0 940.5 0.3 22
2019-05-29 20:00:00 24.8 17 Nordeste 39 Norte 0 940.2 -0.1 21
2019-05-29 19:00:00 25.1 19 Norte 47 Norte 0 940.3 -0.4 20
2019-05-29 18:00:00 25 19 Nordeste 44 Norte 0 940.2 -0.8 22
2019-05-29 17:00:00 25 17 Norte 50 Norte 0 940.3 -1.3 23
2019-05-29 16:00:00 23.4 19 Norte 45 Nordeste 0 940.7 -1 25
2019-05-29 15:00:00 22 17 Norte 48 Norte 0 941 -0.8 26
2019-05-29 14:00:00 21.4 19 Norte 46 Norte 0 941.6 -0.6 27
2019-05-29 13:00:00 19.8 21 Nordeste 46 Norte 0 941.7 -0.7 27
2019-05-29 12:00:00 18.1 17 Nordeste 47 Norte 0 941.8 -0.1 29
2019-05-29 11:00:00 15.6 18 Nordeste 41 Norte 0 942.2 0.6 37
2019-05-29 10:00:00 13.7 17 Nordeste 33 Nordeste 0 942.4 1.5 41
2019-05-29 09:00:00 11.8 5 Noroeste 20 Nordeste 0 941.9 1.2 50
2019-05-29 08:00:00 10.5 7 Nordeste 28 Nordeste 0 941.6 1.2 52
2019-05-29 07:00:00 8.3 5 Sudoeste 12 Noroeste 0 940.9 0.7 58
2019-05-29 06:00:00 8.9 6 Oeste 11 Norte 0 940.7 1 57
2019-05-29 05:00:00 11 3 Oeste 33 Norte 0 940.4 0.8 51
2019-05-29 04:00:00 12.2 5 Norte 21 Norte 0 940.2 0.9 47
2019-05-29 03:00:00 14.3 10 Norte 27 Norte 0 939.7 1.1 40
2019-05-29 02:00:00 15.5 11 Nordeste 26 Nordeste 0 939.6 2 37
2019-05-29 01:00:00 16.5 15 Nordeste 45 Nordeste 0 939.3 2.8 35
2019-05-29 00:00:00 18.3 17 Nordeste 47 Norte 0 938.6 3 29
2019-05-28 23:00:00 19.8 17 Norte 40 Norte 0 937.6 2.6 25
2019-05-28 22:00:00 22.3 19 Norte 45 Norte 0 936.5 1.4 21
2019-05-28 21:00:00 25.5 11 Norte 35 Norte 0 935.6 0.5 16
2019-05-28 20:00:00 26.3 10 Norte 36 Norte 0 935 -0.1 16
2019-05-28 19:00:00 26.3 16 Norte 39 Norte 0 935.1 0 16
2019-05-28 18:00:00 26.4 15 Noroeste 37 Norte 0 935.1 -0.2 14
2019-05-28 17:00:00 26.4 18 Norte 44 Noroeste 0 935.1 -0.5 17
2019-05-28 16:00:00 26 12 Norte 43 Norte 0 935.1 -0.6 20
2019-05-28 15:00:00 25.4 17 Noroeste 44 Noroeste 0 935.3 -0.3 23
2019-05-28 14:00:00 24.4 12 Norte 37 Norte 0 935.6 0.1 27
2019-05-28 13:00:00 23.5 9 Norte 37 Noroeste 0 935.7 0.2 30
2019-05-28 12:00:00 21.8 14 Norte 34 Norte 0 935.6 0.6 34
2019-05-28 11:00:00 19.5 17 Norte 29 Norte 0 935.5 0.9 46
2019-05-28 10:00:00 17.6 14 Norte 26 Norte 0 935.5 1.5 52
2019-05-28 09:00:00 14.7 14 Norte 24 Norte 0 935 1 60
2019-05-28 08:00:00 11.8 7 Noroeste 18 Norte 0 934.6 0.8 68
2019-05-28 07:00:00 10.5 7 Noroeste 17 Norte 0 934 0.2 68
2019-05-28 06:00:00 12.1 7 Noroeste 14 Oeste 0 934 0.1 64
2019-05-28 05:00:00 13.5 7 Noroeste 21 Norte 0 933.8 0 60
2019-05-28 04:00:00 15.8 11 Norte 21 Nordeste 0 933.8 0.2 54
2019-05-28 03:00:00 17.1 9 Nordeste 21 Nordeste 0 933.9 1.1 52
2019-05-28 02:00:00 18 12 Nordeste 27 Nordeste 0 933.8 1.4 48
2019-05-28 01:00:00 19.9 10 Nordeste 30 Norte 0 933.6 1.9 40
2019-05-28 00:00:00 21.6 14 Norte 37 Norte 0 932.8 1.5 31
2019-05-27 23:00:00 21.3 9 Norte 20 Noroeste 0 932.4 1.3 28
2019-05-27 22:00:00 24.3 9 Norte 27 Norte 0 931.7 0.5 23
2019-05-27 21:00:00 26.8 15 Norte 40 Norte 0 931.3 -0.3 20
2019-05-27 20:00:00 28.1 17 Norte 34 Noroeste 0 931.1 -0.8 18
2019-05-27 19:00:00 29.1 18 Noroeste 50 Noroeste 0 931.2 -1.4 17
2019-05-27 18:00:00 29.1 15 Noroeste 45 Noroeste 0 931.6 -1.7 17
2019-05-27 17:00:00 28.8 17 Oeste 46 Oeste 0 931.9 -2.1 17
2019-05-27 16:00:00 27.9 18 Noroeste 35 Oeste 0 932.6 -2.1 20
2019-05-27 15:00:00 27.7 13 Noroeste 41 Noroeste 0 933.3 -1.7 22
2019-05-27 14:00:00 26.4 8 Oeste 35 Oeste 0 934 -1.4 24
2019-05-27 13:00:00 24.3 13 Noroeste 30 Nordeste 0 934.7 -0.7 27
2019-05-27 12:00:00 22.9 9 Norte 24 Norte 0 935 -0.5 28
2019-05-27 11:00:00 21.6 7 Noroeste 22 Oeste 0 935.4 0.1 30
2019-05-27 10:00:00 19.5 5 Este 18 Oeste 0 935.4 0.3 35
2019-05-27 09:00:00 14.2 5 Sudoeste 11 Norte 0 935.5 0.4 50
2019-05-27 08:00:00 11.9 6 Oeste 13 Oeste 0 935.3 -0.2 54
2019-05-27 07:00:00 10.1 5 Noroeste 18 Oeste 0 935.1 -0.6 52
2019-05-27 06:00:00 11.4 10 Norte 21 Nordeste 0 935.1 -1 49
2019-05-27 05:00:00 11 7 Noroeste 19 Oeste 0 935.5 -1 49
2019-05-27 04:00:00 13.2 7 Oeste 19 Oeste 0 935.7 -0.9 45
2019-05-27 03:00:00 14.3 5 Sudoeste 20 Oeste 0 936.1 -0.3 41
2019-05-27 02:00:00 16.1 9 Norte 22 Nordeste 0 936.5 0.7 34
2019-05-27 01:00:00 16.4 5 Noroeste 22 Nordeste 0 936.6 1.2 34
2019-05-27 00:00:00 18.7 9 Nordeste 24 Nordeste 0 936.4 1.1 29
2019-05-26 23:00:00 20.5 4 Norte 13 Noroeste 0 935.8 0.3 28
2019-05-26 22:00:00 22.6 5 Norte 30 Norte 0 935.4 -0.2 25
2019-05-26 21:00:00 25 8 Norte 32 Norte 0 935.3 -0.6 21
2019-05-26 20:00:00 25.3 14 Norte 41 Norte 0 935.5 -0.9 19
2019-05-26 19:00:00 25.2 17 Norte 43 Noroeste 0 935.6 -1.3 19
2019-05-26 18:00:00 24.6 10 Norte 42 Norte 0 935.9 -1.4 18
2019-05-26 17:00:00 25 19 Norte 48 Norte 0 936.4 -1.5 17
2019-05-26 16:00:00 23.4 19 Norte 44 Norte 0 936.9 -1.5 20
2019-05-26 15:00:00 22.6 21 Norte 41 Norte 0 937.3 -1.6 22
2019-05-26 14:00:00 21.3 18 Noroeste 43 Norte 0 937.9 -1 25
2019-05-26 13:00:00 19.4 18 Norte 37 Nordeste 0 938.4 -0.9 30
2019-05-26 12:00:00 18.1 20 Norte 42 Norte 0 938.9 -0.3 33
2019-05-26 11:00:00 16.5 15 Norte 37 Norte 0 938.9 -0.3 36
2019-05-26 10:00:00 14.7 16 Norte 36 Norte 0 939.3 0.4 46
2019-05-26 09:00:00 12.5 10 Noroeste 22 Noroeste 0 939.2 0.8 55
2019-05-26 08:00:00 10.2 9 Noroeste 28 Oeste 0 939.2 0.7 66
2019-05-26 07:00:00 9 9 Oeste 17 Noroeste 0 938.9 0.3 70
2019-05-26 06:00:00 9.8 8 Noroeste 15 Noroeste 0 938.4 -0.2 68
2019-05-26 05:00:00 10.9 9 Norte 21 Noroeste 0 938.5 -0.2 63
2019-05-26 04:00:00 12.1 14 Oeste 21 Norte 0 938.6 0 59
2019-05-26 03:00:00 13.4 10 Norte 23 Norte 0 938.6 0.2 53
2019-05-26 02:00:00 14.9 12 Nordeste 23 Norte 0 938.7 0.8 48
2019-05-26 01:00:00 16.1 10 Nordeste 26 Norte 0 938.6 1.2 43
2019-05-26 00:00:00 17.4 13 Nordeste 25 Nordeste 0 938.4 1.4 37